Grafton, Wisconsin
Current Conditions -  °F | °C
As of 2:15 PM on Friday 31 Oct 2014 (Local Time) from KETB Reporting Station
Overcast Overcast  
Wind Chill: 27°   Ceiling: 4000
Heat Index: 36°   Visibility: 10mi
Dew Point: 21°   Wind: 14mph
Humidity: 56%   Direction: 360°N
Pressure: 30.28"   Gusts: 26mph
Location:  43.32°N, 87.94°W
Report Text: KETB 311915Z AUTO 36012G23KT 10SM OVC040 02/M06 A3028 RMK AO2
Loading
Personal Weather Stations






























Interactive Weather Map
Tropical Storm Tracking
New forecast layout! Learn more

10-Day Weather Forecast

Advertisements
Track Severe Weather on mobile